Time;durP1;ratioP1;P1;durP2;ratioP2;P2;SDS_P1;SDS_P2;PMS_P1;PMS_P2;Temp;Humidity;BMP_temperature;BMP_pressure;BME280_temperature;BME280_humidity;BME280_pressure;Samples;Min_cycle;Max_cycle;Signal;HPM_P1;HPM_P2
2023/11/23 00:05:19;;;;;;;3.55;2.78;;;;;;;0.36;100.00;99145.50;15281274;19;20018;-50
2023/11/23 00:10:45;;;;;;;3.78;3.17;;;;;;;0.37;100.00;99147.22;15275897;19;20807;-46
2023/11/23 00:16:12;;;;;;;2.63;2.42;;;;;;;0.38;100.00;99138.34;15281538;19;20010;-51
2023/11/23 00:21:37;;;;;;;3.28;2.67;;;;;;;0.39;100.00;99124.16;15275941;19;20025;-52
2023/11/23 00:27:03;;;;;;;6.35;2.85;;;;;;;0.40;100.00;99133.81;15275511;19;20078;-49
2023/11/23 00:32:31;;;;;;;2.40;2.20;;;;;;;0.42;100.00;99139.88;15277084;19;20018;-47
2023/11/23 00:37:55;;;;;;;2.72;2.40;;;;;;;0.43;100.00;99133.63;15278515;19;20018;-48
2023/11/23 00:43:20;;;;;;;2.72;2.45;;;;;;;0.42;100.00;99119.53;15275459;19;20022;-55
2023/11/23 00:48:47;;;;;;;3.60;2.83;;;;;;;0.42;100.00;99127.50;15021530;19;5001796;-47
2023/11/23 00:54:12;;;;;;;3.05;2.65;;;;;;;0.41;100.00;99131.06;15277764;19;20022;-47
2023/11/23 00:59:36;;;;;;;3.58;2.78;;;;;;;0.43;100.00;99120.38;15270644;19;20479;-51
2023/11/23 01:05:04;;;;;;;4.07;2.55;;;;;;;0.47;100.00;99098.09;15274885;19;20082;-48
2023/11/23 01:10:28;;;;;;;2.80;2.55;;;;;;;0.53;100.00;99097.75;15274198;19;20022;-51
2023/11/23 01:15:53;;;;;;;2.60;2.40;;;;;;;0.68;100.00;99092.56;15276538;19;20352;-48
2023/11/23 01:21:20;;;;;;;2.63;2.42;;;;;;;0.79;100.00;99074.28;15273619;19;20503;-48
2023/11/23 01:26:45;;;;;;;2.88;2.47;;;;;;;0.84;100.00;99066.06;15276861;19;20010;-45
2023/11/23 01:32:09;;;;;;;2.92;2.17;;;;;;;0.93;100.00;99060.28;15270362;19;20074;-47
2023/11/23 01:37:37;;;;;;;2.20;2.00;;;;;;;0.92;100.00;99059.41;15299219;19;20019;-50
2023/11/23 01:43:01;;;;;;;2.92;2.55;;;;;;;0.98;100.00;99052.06;15280003;19;20035;-51
2023/11/23 01:48:30;;;;;;;2.30;2.10;;;;;;;0.91;100.00;99035.63;15275007;19;20114;-46
2023/11/23 01:53:59;;;;;;;2.10;1.90;;;;;;;0.95;100.00;99044.28;15273294;19;20018;-49
2023/11/23 01:59:26;;;;;;;2.22;2.03;;;;;;;0.98;100.00;99046.75;15269465;19;20022;-48
2023/11/23 02:04:50;;;;;;;2.70;1.95;;;;;;;1.00;100.00;99035.13;15265571;19;20017;-52
2023/11/23 02:10:24;;;;;;;2.00;1.77;;;;;;;1.02;100.00;99035.00;15268202;19;20722;-51
2023/11/23 02:15:49;;;;;;;2.00;1.80;;;;;;;1.01;100.00;99020.91;15268417;19;20497;-47
2023/11/23 02:21:14;;;;;;;3.85;1.77;;;;;;;0.98;100.00;99022.88;15267727;19;20014;-48
2023/11/23 02:26:42;;;;;;;2.55;1.88;;;;;;;0.97;100.00;99018.50;15272812;19;20035;-47
2023/11/23 02:32:06;;;;;;;2.10;1.90;;;;;;;0.90;100.00;99002.91;15265990;19;20091;-47
2023/11/23 02:37:31;;;;;;;2.10;1.90;;;;;;;0.82;100.00;98967.19;15266746;19;20035;-50
2023/11/23 02:42:59;;;;;;;2.10;2.00;;;;;;;0.80;100.00;98980.50;15267359;19;20014;-53
2023/11/23 02:48:24;;;;;;;4.13;2.10;;;;;;;0.80;100.00;98972.56;15264451;19;20019;-54
2023/11/23 02:53:48;;;;;;;2.00;1.80;;;;;;;0.85;100.00;98957.25;15265909;19;20032;-50
2023/11/23 02:59:15;;;;;;;1.90;1.80;;;;;;;0.89;100.00;98947.31;15267207;19;20019;-50
2023/11/23 03:04:40;;;;;;;2.88;1.60;;;;;;;0.90;100.00;98933.09;15269066;19;20093;-51
2023/11/23 03:10:05;;;;;;;2.42;2.08;;;;;;;0.96;100.00;98929.25;15257400;19;20627;-54
2023/11/23 03:15:32;;;;;;;2.33;2.13;;;;;;;0.98;100.00;98922.06;15266837;19;20349;-46
2023/11/23 03:20:57;;;;;;;2.20;2.00;;;;;;;1.00;100.00;98913.06;15263251;19;20022;-53
2023/11/23 03:26:22;;;;;;;2.20;2.00;;;;;;;1.03;100.00;98891.66;15276319;19;20020;-47
2023/11/23 03:31:50;;;;;;;3.33;2.13;;;;;;;1.08;100.00;98899.34;15277712;19;20023;-48
2023/11/23 03:37:15;;;;;;;2.10;1.75;;;;;;;1.10;100.00;98912.53;15278211;19;20015;-49
2023/11/23 03:42:48;;;;;;;2.20;2.00;;;;;;;1.15;100.00;98906.00;14765636;19;10000605;-52
2023/11/23 03:48:16;;;;;;;;;;;;;;;1.17;100.00;98904.13;15280249;19;20028;-49
2023/11/23 03:53:42;;;;;;;3.78;1.90;;;;;;;1.21;100.00;98905.66;15276347;19;20353;-47
2023/11/23 03:59:08;;;;;;;2.30;2.10;;;;;;;1.27;100.00;98909.75;15274000;19;20024;-48
2023/11/23 04:04:36;;;;;;;3.45;2.20;;;;;;;1.33;100.00;98908.53;15279649;19;20020;-50
2023/11/23 04:10:02;;;;;;;2.20;2.00;;;;;;;1.41;100.00;98897.47;15273570;19;20018;-50
2023/11/23 04:15:28;;;;;;;2.40;2.20;;;;;;;1.46;100.00;98898.91;15270089;19;20022;-50
2023/11/23 04:20:56;;;;;;;3.60;2.00;;;;;;;1.54;100.00;98907.25;15272963;19;20626;-48
2023/11/23 04:26:20;;;;;;;2.35;2.15;;;;;;;1.62;100.00;98909.44;15274699;19;20074;-49
2023/11/23 04:31:45;;;;;;;2.78;2.05;;;;;;;1.66;100.00;98910.13;15270797;19;20010;-50
2023/11/23 04:37:14;;;;;;;2.53;1.95;;;;;;;1.70;100.00;98893.06;15276120;19;20045;-46
2023/11/23 04:42:40;;;;;;;2.30;2.10;;;;;;;1.75;100.00;98880.31;15275371;19;20357;-47
2023/11/23 04:48:04;;;;;;;2.35;2.03;;;;;;;1.79;100.00;98900.44;15269867;19;20018;-49
2023/11/23 04:53:32;;;;;;;5.95;2.40;;;;;;;1.84;100.00;98877.09;15272263;19;20025;-48
2023/11/23 04:58:56;;;;;;;2.20;2.00;;;;;;;1.89;100.00;98879.47;15271259;19;20022;-51
2023/11/23 05:04:21;;;;;;;5.05;2.13;;;;;;;1.91;100.00;98866.09;15276192;19;20431;-47
2023/11/23 05:09:48;;;;;;;2.50;2.30;;;;;;;1.92;100.00;98867.81;15273408;19;20018;-52
2023/11/23 05:15:14;;;;;;;2.78;2.55;;;;;;;1.93;100.00;98854.41;15274197;19;20014;-46
2023/11/23 05:20:38;;;;;;;2.75;2.33;;;;;;;1.97;100.00;98868.38;15266347;19;20114;-51
2023/11/23 05:26:06;;;;;;;3.00;2.30;;;;;;;1.99;100.00;98863.81;15274445;19;20475;-49
2023/11/23 05:31:30;;;;;;;4.63;2.30;;;;;;;2.04;100.00;98866.19;15268563;19;20039;-49
2023/11/23 05:36:55;;;;;;;2.63;2.40;;;;;;;2.09;100.00;98862.28;15270486;19;20028;-51
2023/11/23 05:42:22;;;;;;;2.47;2.28;;;;;;;2.13;100.00;98845.19;15273935;19;20494;-52
2023/11/23 05:47:54;;;;;;;3.05;2.72;;;;;;;2.20;100.00;98856.31;15269444;19;20039;-48
2023/11/23 05:53:19;;;;;;;4.60;2.33;;;;;;;2.26;100.00;98860.38;15263149;19;20015;-49
2023/11/23 05:58:46;;;;;;;3.40;2.75;;;;;;;2.28;100.00;98851.34;15269841;19;20018;-47
2023/11/23 06:04:11;;;;;;;3.03;2.50;;;;;;;2.28;100.00;98842.53;15269596;19;20019;-49
2023/11/23 06:09:35;;;;;;;3.88;2.63;;;;;;;2.28;100.00;98854.00;15269633;19;20018;-51
2023/11/23 06:15:03;;;;;;;4.60;2.42;;;;;;;2.29;100.00;98855.72;15270695;19;20077;-46
2023/11/23 06:20:27;;;;;;;2.90;2.65;;;;;;;2.30;100.00;98865.41;15269124;19;20014;-54
2023/11/23 06:25:52;;;;;;;2.58;2.35;;;;;;;2.33;100.00;98845.72;15267700;19;20356;-50
2023/11/23 06:31:20;;;;;;;3.08;2.47;;;;;;;2.33;100.00;98848.38;15267222;19;20524;-47
2023/11/23 06:36:45;;;;;;;3.10;2.78;;;;;;;2.33;100.00;98861.69;15270185;19;20022;-51
2023/11/23 06:42:09;;;;;;;3.38;2.80;;;;;;;2.33;100.00;98829.78;15269217;19;20086;-48
2023/11/23 06:47:44;;;;;;;3.75;3.08;;;;;;;2.38;100.00;98842.75;15266915;19;20024;-50
2023/11/23 06:53:09;;;;;;;3.67;2.78;;;;;;;2.39;100.00;98834.72;15265129;19;20021;-48
2023/11/23 06:58:33;;;;;;;4.95;3.20;;;;;;;2.42;100.00;98828.34;15266474;19;20022;-50
2023/11/23 07:04:00;;;;;;;3.33;3.03;;;;;;;2.47;100.00;98829.75;15285087;19;20017;-48
2023/11/23 07:09:27;;;;;;;4.78;3.13;;;;;;;2.51;100.00;98816.25;15279102;19;20057;-50
2023/11/23 07:14:52;;;;;;;3.47;3.05;;;;;;;2.55;100.00;98815.06;15284364;19;20039;-46
2023/11/23 07:20:19;;;;;;;3.30;3.00;;;;;;;2.60;100.00;98795.19;15278068;19;20014;-53
2023/11/23 07:25:45;;;;;;;3.20;2.90;;;;;;;2.66;100.00;98777.97;15275646;19;20018;-48
2023/11/23 07:31:10;;;;;;;2.83;2.55;;;;;;;2.72;100.00;98777.56;15276096;19;20764;-50
2023/11/23 07:36:38;;;;;;;4.10;2.78;;;;;;;2.78;100.00;98766.50;15281993;19;20042;-51
2023/11/23 07:42:04;;;;;;;2.80;2.60;;;;;;;2.93;100.00;98769.09;15279304;19;20014;-47
2023/11/23 07:47:35;;;;;;;2.90;2.50;;;;;;;3.01;100.00;98766.75;15276093;19;20031;-48
2023/11/23 07:53:04;;;;;;;2.75;2.55;;;;;;;3.11;100.00;98772.31;15275833;19;20014;-52
2023/11/23 07:58:28;;;;;;;3.00;2.70;;;;;;;3.18;100.00;98752.28;15270563;19;20472;-50
2023/11/23 08:03:53;;;;;;;4.78;2.60;;;;;;;3.30;100.00;98745.28;15279107;19;20482;-51
2023/11/23 08:09:21;;;;;;;2.65;2.30;;;;;;;3.44;100.00;98756.78;15275077;19;20010;-49
2023/11/23 08:14:46;;;;;;;3.45;2.53;;;;;;;3.62;100.00;98742.13;15269635;19;20596;-50
2023/11/23 08:20:13;;;;;;;2.30;2.10;;;;;;;3.87;100.00;98748.38;15274880;19;20022;-53
2023/11/23 08:25:42;;;;;;;2.80;2.50;;;;;;;4.04;100.00;98748.97;15277535;19;20471;-51
2023/11/23 08:31:06;;;;;;;2.90;2.60;;;;;;;4.04;100.00;98744.50;15266950;19;20360;-50
2023/11/23 08:36:31;;;;;;;6.40;2.47;;;;;;;4.01;100.00;98734.91;15277609;19;20011;-49
2023/11/23 08:41:58;;;;;;;3.10;2.80;;;;;;;4.03;100.00;98734.78;15276402;19;20032;-54
2023/11/23 08:47:29;;;;;;;2.60;2.40;;;;;;;4.06;100.00;98747.91;15273380;19;20029;-52
2023/11/23 08:52:57;;;;;;;2.40;2.20;;;;;;;4.09;100.00;98728.16;15273313;19;20010;-52
2023/11/23 08:58:24;;;;;;;2.83;2.63;;;;;;;4.12;100.00;98714.59;15275139;19;20341;-48
2023/11/23 09:03:50;;;;;;;4.30;2.50;;;;;;;4.09;100.00;98722.81;15270146;19;20015;-48
2023/11/23 09:09:14;;;;;;;2.97;2.70;;;;;;;4.08;100.00;98718.44;15272111;19;20337;-48
2023/11/23 09:14:42;;;;;;;4.25;2.70;;;;;;;4.08;100.00;98713.97;15270575;19;20487;-50
2023/11/23 09:20:08;;;;;;;2.88;2.60;;;;;;;4.10;100.00;98716.53;15271090;19;20035;-53
2023/11/23 09:25:33;;;;;;;2.72;2.53;;;;;;;4.19;100.00;98701.66;15005864;19;5000875;-55
2023/11/23 09:31:00;;;;;;;2.65;2.45;;;;;;;4.36;100.00;98679.06;15267574;19;20022;-49
2023/11/23 09:36:25;;;;;;;3.10;2.80;;;;;;;4.48;100.00;98681.66;15269951;19;20019;-50
2023/11/23 09:41:51;;;;;;;3.22;2.55;;;;;;;4.57;100.00;98673.94;15268198;19;20014;-48
2023/11/23 09:47:31;;;;;;;3.10;2.80;;;;;;;4.65;100.00;98678.66;15270014;19;20090;-50
2023/11/23 09:52:56;;;;;;;2.60;2.40;;;;;;;4.68;100.00;98662.41;15270389;19;20502;-49
2023/11/23 09:58:21;;;;;;;2.60;2.40;;;;;;;4.70;100.00;98665.81;15269766;19;20324;-49
2023/11/23 10:03:55;;;;;;;4.35;2.60;;;;;;;4.78;100.00;98664.28;15272018;19;20010;-52
2023/11/23 10:09:26;;;;;;;2.83;2.63;;;;;;;4.87;100.00;98662.72;15263481;19;20028;-53
2023/11/23 10:14:55;;;;;;;3.25;2.72;;;;;;;5.02;100.00;98646.44;15267207;19;20097;-50
2023/11/23 10:20:23;;;;;;;2.22;2.03;;;;;;;5.20;100.00;98636.13;15268176;19;20014;-52
2023/11/23 10:25:49;;;;;;;2.50;2.10;;;;;;;5.35;100.00;98610.03;15268827;19;20019;-52
2023/11/23 10:31:16;;;;;;;3.58;2.20;;;;;;;5.46;100.00;98618.03;15265919;19;20018;-52
2023/11/23 10:36:46;;;;;;;2.30;2.10;;;;;;;5.48;100.00;98578.66;15268307;19;20025;-48
2023/11/23 10:42:11;;;;;;;2.60;2.33;;;;;;;5.48;100.00;98578.66;15262702;19;20030;-48
2023/11/23 10:47:47;;;;;;;3.17;2.60;;;;;;;5.42;100.00;98570.28;15262534;19;20018;-54
2023/11/23 10:53:17;;;;;;;3.55;2.67;;;;;;;5.34;100.00;98547.72;15265000;19;20039;-50
2023/11/23 10:58:44;;;;;;;5.97;2.60;;;;;;;5.31;100.00;98528.44;15266113;19;20025;-50
2023/11/23 11:04:10;;;;;;;7.10;2.55;;;;;;;5.30;100.00;98519.56;15003719;19;5001662;-52
2023/11/23 11:09:39;;;;;;;3.03;2.70;;;;;;;5.29;100.00;98503.66;15281589;19;20527;-53
2023/11/23 11:15:06;;;;;;;2.90;2.70;;;;;;;5.32;100.00;98474.03;15257244;19;20442;-54
2023/11/23 11:20:36;;;;;;;2.97;2.70;;;;;;;5.32;100.00;98500.75;15264184;19;20021;-54
2023/11/23 11:26:09;;;;;;;2.88;2.60;;;;;;;5.35;100.00;98457.75;15266199;19;20636;-54
2023/11/23 11:31:39;;;;;;;2.72;2.53;;;;;;;5.42;100.00;98444.72;15260672;19;20370;-49
2023/11/23 11:37:07;;;;;;;2.78;2.58;;;;;;;5.43;100.00;98439.25;15266212;19;20024;-48
2023/11/23 11:42:38;;;;;;;5.10;3.05;;;;;;;5.44;100.00;98424.94;15264060;19;20014;-51
2023/11/23 11:48:09;;;;;;;2.70;2.50;;;;;;;5.50;100.00;98426.22;15264034;19;20019;-51
2023/11/23 11:53:34;;;;;;;2.83;2.63;;;;;;;5.50;100.00;98407.53;15276752;19;20010;-48
2023/11/23 11:59:03;;;;;;;3.33;3.03;;;;;;;5.49;100.00;98401.31;15276513;19;20371;-50
2023/11/23 12:04:28;;;;;;;3.50;3.20;;;;;;;5.54;100.00;98398.25;15279070;19;20025;-49
2023/11/23 12:09:52;;;;;;;3.05;2.80;;;;;;;5.60;100.00;98368.34;15274711;19;20079;-52
2023/11/23 12:15:20;;;;;;;2.83;2.50;;;;;;;5.72;100.00;98353.06;15275442;19;20014;-47
2023/11/23 12:20:46;;;;;;;2.60;2.40;;;;;;;5.71;100.00;98372.75;15267591;19;20085;-51
2023/11/23 12:26:12;;;;;;;3.13;2.70;;;;;;;5.65;100.00;98349.25;15275999;19;20364;-48
2023/11/23 12:31:39;;;;;;;3.00;2.70;;;;;;;5.62;100.00;98357.53;15268802;19;20026;-50
2023/11/23 12:37:04;;;;;;;2.90;2.70;;;;;;;5.67;100.00;98320.56;15277470;19;20017;-49
2023/11/23 12:42:30;;;;;;;2.83;2.40;;;;;;;5.73;100.00;98356.63;15274027;19;20050;-52
2023/11/23 12:48:04;;;;;;;3.05;2.10;;;;;;;5.81;100.00;98346.09;15273204;19;20016;-51
2023/11/23 12:53:29;;;;;;;2.10;1.90;;;;;;;6.03;100.00;98317.50;15273200;19;20014;-50
2023/11/23 12:58:54;;;;;;;2.20;2.00;;;;;;;6.20;100.00;98306.19;15271469;19;20035;-50
2023/11/23 13:04:24;;;;;;;2.88;2.10;;;;;;;6.29;100.00;98291.16;15273715;19;20019;-52
2023/11/23 13:09:49;;;;;;;2.05;1.70;;;;;;;6.30;100.00;98260.72;15271187;19;20401;-48
2023/11/23 13:15:15;;;;;;;2.65;1.98;;;;;;;6.28;100.00;98262.69;15272307;19;20431;-51
2023/11/23 13:20:43;;;;;;;1.90;1.80;;;;;;;6.26;100.00;98254.78;15269589;19;20018;-49
2023/11/23 13:26:12;;;;;;;2.10;1.90;;;;;;;6.26;100.00;98256.63;15272933;19;20027;-50
2023/11/23 13:31:43;;;;;;;2.13;1.90;;;;;;;6.27;100.00;98250.31;15269581;19;20031;-49
2023/11/23 13:37:11;;;;;;;2.22;2.03;;;;;;;6.26;100.00;98224.53;15273139;19;20015;-50
2023/11/23 13:42:36;;;;;;;3.00;1.77;;;;;;;6.30;100.00;98223.25;15272457;19;20347;-53
2023/11/23 13:48:08;;;;;;;2.45;1.70;;;;;;;6.32;100.00;98238.19;15270855;19;20022;-54
2023/11/23 13:53:36;;;;;;;2.95;2.00;;;;;;;6.39;100.00;98221.56;15265815;19;20014;-50
2023/11/23 13:59:01;;;;;;;1.80;1.70;;;;;;;6.40;100.00;98233.97;15270073;19;20038;-50
2023/11/23 14:04:26;;;;;;;2.13;1.90;;;;;;;6.39;100.00;98227.78;15270281;19;20571;-48
2023/11/23 14:09:53;;;;;;;2.25;2.00;;;;;;;6.36;100.00;98238.75;15264148;19;20021;-49
2023/11/23 14:15:19;;;;;;;2.00;1.77;;;;;;;6.35;100.00;98210.31;15269731;19;20025;-49
2023/11/23 14:20:45;;;;;;;1.73;1.63;;;;;;;6.38;100.00;98210.03;15266590;19;20009;-48
2023/11/23 14:26:14;;;;;;;2.30;2.00;;;;;;;6.38;100.00;98211.84;15265135;19;20105;-51
2023/11/23 14:31:38;;;;;;;2.65;1.98;;;;;;;6.35;100.00;98209.47;15264868;19;20475;-49
2023/11/23 14:37:04;;;;;;;1.95;1.70;;;;;;;6.30;100.00;98202.72;15269441;19;20010;-49
2023/11/23 14:42:31;;;;;;;2.10;1.88;;;;;;;6.27;100.00;98207.50;15267692;19;20829;-50
2023/11/23 14:48:15;;;;;;;1.95;1.70;;;;;;;6.25;100.00;98193.41;15265204;19;20024;-49
2023/11/23 14:53:43;;;;;;;1.90;1.80;;;;;;;6.27;100.00;98181.56;15267557;19;20021;-50
2023/11/23 14:59:12;;;;;;;2.13;1.90;;;;;;;6.31;100.00;98166.09;15260547;19;20290;-51
2023/11/23 15:04:38;;;;;;;2.08;1.85;;;;;;;6.37;100.00;98170.88;15268460;19;20553;-50
2023/11/23 15:10:06;;;;;;;2.28;1.90;;;;;;;6.37;100.00;98165.53;15265136;19;20094;-49
2023/11/23 15:15:34;;;;;;;2.53;1.70;;;;;;;6.35;100.00;98140.75;15264242;19;20014;-50
2023/11/23 15:20:59;;;;;;;1.92;1.70;;;;;;;6.35;100.00;98137.25;15266861;19;20034;-50
2023/11/23 15:26:26;;;;;;;2.17;1.70;;;;;;;6.41;100.00;98155.38;15281339;19;20022;-55
2023/11/23 15:31:55;;;;;;;3.08;1.85;;;;;;;6.58;100.00;98161.84;15269241;19;20042;-49
2023/11/23 15:37:20;;;;;;;2.40;1.90;;;;;;;6.63;100.00;98155.09;15275273;19;20490;-50
2023/11/23 15:42:46;;;;;;;1.75;1.10;;;;;;;6.98;100.00;98157.28;15256335;19;20073;-50
2023/11/23 15:48:20;;;;;;;1.10;1.10;;;;;;;7.35;100.00;98143.88;15275972;19;20014;-52
2023/11/23 15:53:45;;;;;;;1.63;1.40;;;;;;;7.59;100.00;98155.91;15280051;19;20018;-49
2023/11/23 15:59:10;;;;;;;1.40;1.30;;;;;;;7.65;100.00;98139.25;15276268;19;20082;-49
2023/11/23 16:04:38;;;;;;;2.05;1.17;;;;;;;7.66;100.00;98134.72;15271734;19;20019;-49
2023/11/23 16:10:04;;;;;;;1.40;1.20;;;;;;;7.72;100.00;98113.50;15276147;19;20081;-50
2023/11/23 16:15:30;;;;;;;2.00;1.10;;;;;;;7.76;100.00;98079.19;15273739;19;20029;-49
2023/11/23 16:20:57;;;;;;;2.63;1.13;;;;;;;7.81;100.00;98090.31;15257733;19;20021;-49
2023/11/23 16:26:22;;;;;;;1.65;1.00;;;;;;;7.89;100.00;98097.59;15271537;19;20023;-50
2023/11/23 16:31:48;;;;;;;1.15;1.05;;;;;;;7.93;100.00;98065.94;15269885;19;20019;-51
2023/11/23 16:37:15;;;;;;;1.30;1.10;;;;;;;7.94;100.00;98052.38;15268401;19;20061;-50
2023/11/23 16:42:40;;;;;;;1.02;0.98;;;;;;;7.91;100.00;98044.66;15276603;19;20022;-53
2023/11/23 16:48:13;;;;;;;1.30;1.10;;;;;;;7.88;100.00;98034.22;15274978;19;20023;-49
2023/11/23 16:53:41;;;;;;;1.55;1.15;;;;;;;7.82;100.00;98021.44;15275729;19;20014;-49
2023/11/23 16:59:08;;;;;;;1.60;1.13;;;;;;;7.72;100.00;98011.59;15273232;19;20511;-49
2023/11/23 17:04:33;;;;;;;1.20;1.10;;;;;;;7.67;100.00;98019.28;15276868;19;20257;-50
2023/11/23 17:10:01;;;;;;;1.10;1.00;;;;;;;7.63;100.00;97966.97;15264965;19;20074;-47
2023/11/23 17:15:28;;;;;;;1.60;1.20;;;;;;;7.61;100.00;97968.94;15271499;19;20021;-49
2023/11/23 17:20:54;;;;;;;1.60;1.10;;;;;;;7.60;100.00;97953.84;15269827;19;20018;-48
2023/11/23 17:26:24;;;;;;;0.90;0.90;;;;;;;7.58;100.00;97944.28;15272370;19;20285;-52
2023/11/23 17:31:54;;;;;;;1.10;1.00;;;;;;;7.58;100.00;97918.34;15268159;19;20027;-54
2023/11/23 17:37:19;;;;;;;0.82;0.82;;;;;;;7.57;100.00;97922.00;15270223;19;20014;-52
2023/11/23 17:42:48;;;;;;;1.20;1.10;;;;;;;7.67;100.00;97895.94;15260495;19;20011;-51
2023/11/23 17:48:22;;;;;;;1.52;1.00;;;;;;;7.63;100.00;97889.22;15267267;19;20014;-51
2023/11/23 17:53:47;;;;;;;1.33;1.20;;;;;;;7.59;100.00;97881.63;15270790;19;20490;-50
2023/11/23 17:59:15;;;;;;;2.10;1.00;;;;;;;7.56;100.00;97867.53;15261470;19;20018;-50
2023/11/23 18:04:59;;;;;;;1.70;1.33;;;;;;;7.56;100.00;97880.13;15271570;19;20333;-48
2023/11/23 18:10:25;;;;;;;3.05;1.10;;;;;;;7.56;100.00;97845.28;15263308;19;20019;-51
2023/11/23 18:15:53;;;;;;;1.65;1.10;;;;;;;7.56;100.00;97848.78;15262892;19;20014;-49
2023/11/23 18:21:18;;;;;;;1.27;1.20;;;;;;;7.54;100.00;97841.91;15260701;19;20471;-54
2023/11/23 18:26:44;;;;;;;1.15;1.05;;;;;;;7.57;100.00;97830.88;15262791;19;20017;-50
2023/11/23 18:32:07;;;;;;;1.45;1.35;;;;;;;7.56;100.00;97832.69;15269309;19;20016;-52
2023/11/23 18:37:32;;;;;;;1.85;1.33;;;;;;;7.54;100.00;97825.81;15265888;19;20297;-51
2023/11/23 18:42:58;;;;;;;1.70;1.40;;;;;;;7.56;100.00;97805.88;15265040;19;20476;-51
2023/11/23 18:48:33;;;;;;;2.58;1.42;;;;;;;7.54;100.00;97821.28;15260451;19;20594;-51
2023/11/23 18:53:57;;;;;;;1.40;1.30;;;;;;;7.60;100.00;97811.78;15267508;19;20015;-49
2023/11/23 18:59:22;;;;;;;1.30;1.20;;;;;;;7.60;100.00;97819.81;15278585;19;20354;-51
2023/11/23 19:04:50;;;;;;;1.63;1.15;;;;;;;7.75;100.00;97803.16;15260268;19;20070;-50
2023/11/23 19:10:17;;;;;;;1.48;1.30;;;;;;;7.85;100.00;97779.75;15277252;19;20013;-48
2023/11/23 19:15:43;;;;;;;1.10;1.10;;;;;;;7.95;100.00;97772.41;15275499;19;20018;-52
2023/11/23 19:21:12;;;;;;;1.58;1.20;;;;;;;8.01;100.00;97763.75;15274982;19;20043;-52
2023/11/23 19:26:38;;;;;;;1.27;1.17;;;;;;;8.08;100.00;97741.63;15278745;19;20014;-53
2023/11/23 19:32:06;;;;;;;1.95;1.13;;;;;;;8.12;100.00;97726.88;15273075;19;20057;-53
2023/11/23 19:37:36;;;;;;;1.27;0.90;;;;;;;8.17;100.00;97700.44;15271942;19;20015;-51
2023/11/23 19:43:02;;;;;;;1.00;1.00;;;;;;;8.21;100.00;97676.78;15278891;19;20010;-52
2023/11/23 19:48:31;;;;;;;1.10;1.00;;;;;;;8.24;100.00;97636.19;15269411;19;20090;-52
2023/11/23 19:54:03;;;;;;;0.93;0.90;;;;;;;8.23;100.00;97619.25;15278051;19;20002;-51
2023/11/23 19:59:28;;;;;;;1.17;1.00;;;;;;;8.23;100.00;97631.84;15275248;19;20051;-49
2023/11/23 20:04:54;;;;;;;0.90;0.90;;;;;;;8.22;100.00;97631.00;15279443;19;20018;-50
2023/11/23 20:10:23;;;;;;;1.05;0.95;;;;;;;8.15;100.00;97627.31;15272970;19;20887;-47
2023/11/23 20:15:48;;;;;;;0.80;0.80;;;;;;;8.37;100.00;97619.59;15275141;19;20021;-53
2023/11/23 20:21:13;;;;;;;0.45;0.45;;;;;;;8.61;100.00;97600.84;15266179;19;20039;-51
2023/11/23 20:26:41;;;;;;;0.60;0.60;;;;;;;8.77;100.00;97570.44;15276317;19;20019;-53
2023/11/23 20:32:07;;;;;;;0.60;0.60;;;;;;;8.90;100.00;97569.06;15271797;19;20419;-52
2023/11/23 20:37:32;;;;;;;0.65;0.65;;;;;;;8.95;100.00;97561.31;15272504;19;20025;-55
2023/11/23 20:43:00;;;;;;;0.50;0.50;;;;;;;9.03;100.00;97547.88;15274809;19;20027;-54
2023/11/23 20:48:32;;;;;;;0.60;0.60;;;;;;;9.10;100.00;97526.53;15268244;19;20081;-56
2023/11/23 20:53:57;;;;;;;0.90;0.60;;;;;;;9.18;100.00;97510.38;15266982;19;20015;-52
2023/11/23 20:59:26;;;;;;;0.63;0.60;;;;;;;9.21;100.00;97507.34;15271567;19;20539;-51
2023/11/23 21:04:52;;;;;;;0.63;0.50;;;;;;;9.25;100.00;97503.28;15271607;19;20025;-53
2023/11/23 21:10:19;;;;;;;0.55;0.50;;;;;;;9.27;100.00;97478.94;15268458;19;20020;-52
2023/11/23 21:15:47;;;;;;;0.55;0.55;;;;;;;9.24;100.00;97463.97;15264270;19;20025;-50
2023/11/23 21:21:13;;;;;;;1.50;0.50;;;;;;;9.28;100.00;97452.88;15259694;19;20029;-49
2023/11/23 21:26:38;;;;;;;0.40;0.40;;;;;;;9.30;100.00;97429.34;15266442;19;20353;-49
2023/11/23 21:32:06;;;;;;;0.68;0.50;;;;;;;9.36;100.00;97428.63;15271598;19;20605;-50
2023/11/23 21:37:31;;;;;;;1.73;0.50;;;;;;;9.31;100.00;97420.28;15270696;19;20014;-53
2023/11/23 21:42:57;;;;;;;0.40;0.40;;;;;;;9.38;100.00;97414.00;15270911;19;20409;-53
2023/11/23 21:48:25;;;;;;;2.20;0.55;;;;;;;9.42;100.00;97374.16;15268274;19;20020;-50
2023/11/23 21:53:50;;;;;;;0.75;0.40;;;;;;;9.36;100.00;97364.97;15272593;19;20022;-52
2023/11/23 21:59:16;;;;;;;0.40;0.40;;;;;;;9.38;100.00;97372.84;15261045;19;20050;-53
2023/11/23 22:04:46;;;;;;;0.20;0.20;;;;;;;9.42;100.00;97379.53;15272151;19;20970;-49
2023/11/23 22:10:11;;;;;;;0.38;0.38;;;;;;;9.48;100.00;97349.22;15269021;19;20010;-50
2023/11/23 22:15:36;;;;;;;0.70;0.40;;;;;;;9.53;100.00;97340.63;15268407;19;20032;-51
2023/11/23 22:21:04;;;;;;;0.38;0.20;;;;;;;9.60;100.00;97354.19;15266986;19;20889;-55
2023/11/23 22:26:30;;;;;;;0.50;0.40;;;;;;;9.60;100.00;97322.75;15270064;19;20488;-54
2023/11/23 22:31:57;;;;;;;0.20;0.20;;;;;;;9.62;100.00;97303.75;15258236;19;20015;-50
2023/11/23 22:37:26;;;;;;;0.20;0.20;;;;;;;9.66;100.00;97287.06;15268839;19;20472;-52
2023/11/23 22:42:51;;;;;;;0.65;0.30;;;;;;;9.69;100.00;97308.22;15266172;19;20920;-50
2023/11/23 22:48:23;;;;;;;0.20;0.20;;;;;;;9.75;100.00;97312.03;15265306;19;20409;-53
2023/11/23 22:53:51;;;;;;;0.20;0.20;;;;;;;9.71;100.00;97299.94;15265926;19;20014;-49
2023/11/23 22:59:16;;;;;;;0.13;0.13;;;;;;;9.71;100.00;97270.38;15262811;19;20029;-50
2023/11/23 23:04:43;;;;;;;0.63;0.20;;;;;;;9.68;100.00;97282.34;15262088;19;20002;-54
2023/11/23 23:10:11;;;;;;;0.63;0.20;;;;;;;9.44;100.00;97282.56;15262894;19;20011;-52
2023/11/23 23:15:37;;;;;;;0.25;0.20;;;;;;;8.96;100.00;97298.94;15265320;19;20074;-50
2023/11/23 23:21:01;;;;;;;0.30;0.30;;;;;;;8.68;100.00;97342.38;15262621;19;20018;-50
2023/11/23 23:26:28;;;;;;;0.45;0.30;;;;;;;8.54;100.00;97339.44;15263052;19;20029;-52
2023/11/23 23:31:53;;;;;;;0.77;0.50;;;;;;;8.44;100.00;97387.09;14984812;19;5001356;-49
2023/11/23 23:37:19;;;;;;;1.60;0.40;;;;;;;8.22;100.00;97464.63;15258574;19;20024;-51
2023/11/23 23:42:46;;;;;;;3.92;0.63;;;;;;;7.72;100.00;97496.81;15269115;19;20085;-55
2023/11/23 23:48:18;;;;;;;3.92;0.55;;;;;;;7.40;100.00;97482.38;15273354;19;20018;-51
2023/11/23 23:53:43;;;;;;;3.95;0.75;;;;;;;7.20;100.00;97472.97;15280607;19;20014;-54
2023/11/23 23:59:11;;;;;;;2.47;0.68;;;;;;;6.90;100.00;97491.25;15274845;19;20010;-53
